Time,TemperatureF,DewpointF,PressureIn,WindDirection,WindDirectionDegrees,WindSpeedMPH,WindSpeedGustMPH,Humidity,HourlyPrecipIn,Conditions,Clouds,dailyrainin,SoftwareType,DateUTC
2013-08-10 00:02:00,58.0,42.0,-100.00,ESE,107,1.0,2.0,54,0.00,,,-99.99,,2013-08-10 06:02:00,
2013-08-10 00:11:00,56.0,42.0,-100.00,North,10,5.0,7.0,59,0.00,,,-99.99,,2013-08-10 06:11:00,
2013-08-10 00:22:00,54.0,42.0,-100.00,North,1,2.0,6.0,64,0.00,,,-99.99,,2013-08-10 06:22:00,
2013-08-10 00:32:00,54.0,42.0,-100.00,NNW,337,2.0,7.0,64,0.00,,,-99.99,,2013-08-10 06:32:00,
2013-08-10 00:44:00,54.0,43.0,-100.00,NW,311,1.0,4.0,65,0.00,,,-99.99,,2013-08-10 06:44:00,
2013-08-10 00:53:00,53.0,42.0,-100.00,SSW,206,4.0,6.0,64,0.00,,,-99.99,,2013-08-10 06:53:00,
2013-08-10 01:02:00,54.0,42.0,-100.00,SSW,199,4.0,5.0,63,0.00,,,-99.99,,2013-08-10 07:02:00,
2013-08-10 01:12:00,53.0,41.0,-100.00,South,191,4.0,6.0,64,0.00,,,-99.99,,2013-08-10 07:12:00,
2013-08-10 01:22:00,51.0,41.0,-100.00,SSW,192,6.0,7.0,67,0.00,,,-99.99,,2013-08-10 07:22:00,
2013-08-10 01:33:00,52.0,41.0,-100.00,South,176,5.0,7.0,65,0.00,,,-99.99,,2013-08-10 07:33:00,
2013-08-10 01:43:00,51.0,40.0,-100.00,South,186,4.0,5.0,68,0.00,,,-99.99,,2013-08-10 07:43:00,
2013-08-10 01:52:00,50.0,40.0,-100.00,WSW,247,2.0,4.0,69,0.00,,,-99.99,,2013-08-10 07:52:00,
2013-08-10 02:01:00,49.0,40.0,-100.00,West,260,1.0,2.0,71,0.00,,,-99.99,,2013-08-10 08:01:00,
2013-08-10 02:12:00,51.0,41.0,-100.00,West,274,2.0,4.0,70,0.00,,,-99.99,,2013-08-10 08:12:00,
2013-08-10 02:21:00,50.0,41.0,-100.00,WSW,250,2.0,4.0,71,0.00,,,-99.99,,2013-08-10 08:21:00,
2013-08-10 02:32:00,49.0,41.0,-100.00,WSW,241,2.0,4.0,73,0.00,,,-99.99,,2013-08-10 08:32:00,
2013-08-10 02:43:00,48.0,40.0,-100.00,SSW,209,3.0,4.0,74,0.00,,,-99.99,,2013-08-10 08:43:00,
2013-08-10 02:53:00,48.0,41.0,-100.00,South,175,2.0,3.0,75,0.00,,,-99.99,,2013-08-10 08:53:00,
2013-08-10 03:02:00,49.0,41.0,-100.00,South,184,4.0,6.0,74,0.00,,,-99.99,,2013-08-10 09:02:00,
2013-08-10 03:12:00,50.0,42.0,-100.00,South,186,3.0,4.0,73,0.00,,,-99.99,,2013-08-10 09:12:00,
2013-08-10 03:21:00,49.0,42.0,-100.00,South,169,3.0,4.0,75,0.00,,,-99.99,,2013-08-10 09:21:00,
2013-08-10 03:32:00,48.0,41.0,-100.00,SSE,147,5.0,7.0,76,0.00,,,-99.99,,2013-08-10 09:32:00,
2013-08-10 03:43:00,48.0,40.0,-100.00,SSE,151,7.0,10.0,75,0.00,,,-99.99,,2013-08-10 09:43:00,
2013-08-10 03:52:00,48.0,40.0,-100.00,SSE,150,10.0,11.0,74,0.00,,,-99.99,,2013-08-10 09:52:00,
2013-08-10 04:02:00,49.0,40.0,-100.00,SSE,147,11.0,13.0,72,0.00,,,-99.99,,2013-08-10 10:02:00,
2013-08-10 04:11:00,48.0,40.0,-100.00,SE,145,11.0,13.0,73,0.00,,,-99.99,,2013-08-10 10:11:00,
2013-08-10 04:22:00,49.0,40.0,-100.00,SSE,147,9.0,11.0,71,0.00,,,-99.99,,2013-08-10 10:22:00,
2013-08-10 04:33:00,49.0,40.0,-100.00,SSE,148,10.0,12.0,70,0.00,,,-99.99,,2013-08-10 10:33:00,
2013-08-10 04:44:00,51.0,40.0,-100.00,SE,145,11.0,12.0,65,0.00,,,-99.99,,2013-08-10 10:44:00,
2013-08-10 04:52:00,51.0,39.0,-100.00,SSE,158,7.0,12.0,63,0.00,,,-99.99,,2013-08-10 10:52:00,
2013-08-10 05:02:00,54.0,38.0,-100.00,SE,141,5.0,6.0,54,0.00,,,-99.99,,2013-08-10 11:02:00,
2013-08-10 05:11:00,53.0,37.0,-100.00,SE,137,6.0,7.0,54,0.00,,,-99.99,,2013-08-10 11:11:00,
2013-08-10 05:22:00,55.0,37.0,-100.00,SSE,147,6.0,7.0,51,0.00,,,-99.99,,2013-08-10 11:22:00,
2013-08-10 05:33:00,56.0,36.0,-100.00,SE,137,5.0,7.0,46,0.00,,,-99.99,,2013-08-10 11:33:00,
2013-08-10 05:43:00,58.0,35.0,-100.00,SSE,160,6.0,7.0,42,0.00,,,-99.99,,2013-08-10 11:43:00,
2013-08-10 05:52:00,57.0,35.0,-100.00,South,178,6.0,8.0,43,0.00,,,-99.99,,2013-08-10 11:52:00,
2013-08-10 06:01:00,55.0,36.0,-100.00,WSW,243,1.0,4.0,49,0.00,,,-99.99,,2013-08-10 12:01:00,
2013-08-10 06:11:00,54.0,36.0,-100.00,SSW,210,1.0,2.0,49,0.00,,,-99.99,,2013-08-10 12:11:00,
2013-08-10 06:22:00,54.0,36.0,-100.00,WSW,240,0.0,4.0,49,0.00,,,-99.99,,2013-08-10 12:22:00,
2013-08-10 06:32:00,56.0,35.0,-100.00,SW,220,3.0,9.0,46,0.00,,,-99.99,,2013-08-10 12:32:00,
2013-08-10 06:42:00,56.0,35.0,-100.00,South,182,9.0,12.0,46,0.00,,,-99.99,,2013-08-10 12:42:00,
2013-08-10 06:52:00,56.0,35.0,-100.00,South,182,10.0,12.0,45,0.00,,,-99.99,,2013-08-10 12:52:00,
2013-08-10 07:01:00,57.0,35.0,-100.00,South,182,9.0,11.0,44,0.00,,,-99.99,,2013-08-10 13:01:00,
2013-08-10 07:11:00,58.0,35.0,-100.00,South,181,9.0,12.0,42,0.00,,,-99.99,,2013-08-10 13:11:00,
2013-08-10 07:21:00,57.0,35.0,-100.00,South,182,9.0,11.0,44,0.00,,,-99.99,,2013-08-10 13:21:00,
2013-08-10 07:32:00,57.0,35.0,-100.00,South,181,9.0,11.0,44,0.00,,,-99.99,,2013-08-10 13:32:00,
2013-08-10 07:43:00,59.0,37.0,-100.00,South,189,9.0,11.0,43,0.00,,,-99.99,,2013-08-10 13:43:00,
2013-08-10 09:02:00,66.0,37.0,-100.00,WNW,295,6.0,11.0,34,0.00,,,-99.99,,2013-08-10 15:02:00,
2013-08-10 09:11:00,64.0,39.0,-100.00,North,0,7.0,12.0,40,0.00,,,-99.99,,2013-08-10 15:11:00,
2013-08-10 09:22:00,65.0,39.0,-100.00,NW,320,7.0,12.0,37,0.00,,,-99.99,,2013-08-10 15:22:00,
2013-08-10 09:33:00,67.0,33.0,-100.00,WNW,284,5.0,14.0,28,0.00,,,-99.99,,2013-08-10 15:33:00,
2013-08-10 09:43:00,69.0,34.0,-100.00,WSW,250,11.0,17.0,27,0.00,,,-99.99,,2013-08-10 15:43:00,
2013-08-10 09:52:00,69.0,34.0,-100.00,WNW,287,6.0,12.0,27,0.00,,,-99.99,,2013-08-10 15:52:00,
2013-08-10 10:01:00,68.0,39.0,-100.00,WNW,282,7.0,14.0,34,0.00,,,-99.99,,2013-08-10 16:01:00,
2013-08-10 10:11:00,70.0,35.0,-100.00,West,272,10.0,19.0,27,0.00,,,-99.99,,2013-08-10 16:11:00,
2013-08-10 10:22:00,70.0,34.0,-100.00,WSW,254,9.0,16.0,26,0.00,,,-99.99,,2013-08-10 16:22:00,
2013-08-10 10:32:00,69.0,34.0,-100.00,NW,313,8.0,18.0,27,0.00,,,-99.99,,2013-08-10 16:32:00,
2013-08-10 10:43:00,71.0,34.0,-100.00,West,264,9.0,21.0,25,0.00,,,-99.99,,2013-08-10 16:43:00,
2013-08-10 10:53:00,70.0,34.0,-100.00,WSW,250,11.0,16.0,26,0.00,,,-99.99,,2013-08-10 16:53:00,
2013-08-10 11:02:00,71.0,35.0,-100.00,WSW,256,12.0,19.0,27,0.00,,,-99.99,,2013-08-10 17:02:00,
2013-08-10 11:12:00,70.0,34.0,-100.00,WSW,253,14.0,19.0,27,0.00,,,-99.99,,2013-08-10 17:12:00,
2013-08-10 11:22:00,69.0,34.0,-100.00,WSW,258,10.0,15.0,27,0.00,,,-99.99,,2013-08-10 17:22:00,
2013-08-10 11:33:00,71.0,34.0,-100.00,West,265,11.0,30.0,26,0.00,,,-99.99,,2013-08-10 17:33:00,
2013-08-10 11:43:00,71.0,33.0,-100.00,WSW,243,12.0,23.0,24,0.00,,,-99.99,,2013-08-10 17:43:00,
2013-08-10 11:52:00,71.0,34.0,-100.00,West,260,7.0,13.0,26,0.00,,,-99.99,,2013-08-10 17:52:00,
2013-08-10 12:01:00,71.0,33.0,-100.00,WSW,239,7.0,13.0,24,0.00,,,-99.99,,2013-08-10 18:01:00,
2013-08-10 12:11:00,72.0,34.0,-100.00,WSW,247,11.0,17.0,25,0.00,,,-99.99,,2013-08-10 18:11:00,
2013-08-10 12:23:00,72.0,31.0,-100.00,WSW,256,9.0,19.0,22,0.00,,,-99.99,,2013-08-10 18:23:00,
2013-08-10 12:32:00,73.0,31.0,-100.00,SSW,209,7.0,14.0,21,0.00,,,-99.99,,2013-08-10 18:32:00,
2013-08-10 12:44:00,74.0,32.0,-100.00,SSW,209,10.0,17.0,21,0.00,,,-99.99,,2013-08-10 18:44:00,
2013-08-10 12:52:00,74.0,31.0,-100.00,SW,216,12.0,19.0,21,0.00,,,-99.99,,2013-08-10 18:52:00,
2013-08-10 13:01:00,74.0,31.0,-100.00,SSW,206,9.0,16.0,20,0.00,,,-99.99,,2013-08-10 19:01:00,
2013-08-10 13:11:00,73.0,32.0,-100.00,SW,233,12.0,21.0,21,0.00,,,-99.99,,2013-08-10 19:11:00,
2013-08-10 13:22:00,75.0,32.0,-100.00,SW,236,9.0,17.0,21,0.00,,,-99.99,,2013-08-10 19:22:00,
2013-08-10 13:32:00,73.0,29.0,-100.00,WSW,247,13.0,19.0,19,0.00,,,-99.99,,2013-08-10 19:32:00,
2013-08-10 13:44:00,74.0,30.0,-100.00,WSW,250,13.0,23.0,20,0.00,,,-99.99,,2013-08-10 19:44:00,
2013-08-10 13:53:00,74.0,30.0,-100.00,WSW,254,12.0,20.0,20,0.00,,,-99.99,,2013-08-10 19:53:00,
2013-08-10 14:01:00,73.0,30.0,-100.00,SW,227,16.0,23.0,20,0.00,,,-99.99,,2013-08-10 20:01:00,
2013-08-10 14:11:00,74.0,29.0,-100.00,SW,232,11.0,19.0,19,0.00,,,-99.99,,2013-08-10 20:11:00,
2013-08-10 14:22:00,73.0,29.0,-100.00,SW,230,16.0,32.0,20,0.00,,,-99.99,,2013-08-10 20:22:00,
2013-08-10 14:33:00,73.0,29.0,-100.00,SSW,213,12.0,18.0,20,0.00,,,-99.99,,2013-08-10 20:33:00,
2013-08-10 14:43:00,74.0,30.0,-100.00,SW,220,10.0,16.0,20,0.00,,,-99.99,,2013-08-10 20:43:00,
2013-08-10 15:02:00,74.0,28.0,-100.00,SW,222,14.0,21.0,18,0.00,,,-99.99,,2013-08-10 21:02:00,
2013-08-10 15:11:00,74.0,29.0,-100.00,SW,232,10.0,14.0,19,0.00,,,-99.99,,2013-08-10 21:11:00,
2013-08-10 15:22:00,76.0,28.0,-100.00,WSW,237,6.0,14.0,17,0.00,,,-99.99,,2013-08-10 21:22:00,
2013-08-10 15:32:00,74.0,28.0,-100.00,West,278,6.0,17.0,18,0.00,,,-99.99,,2013-08-10 21:32:00,
2013-08-10 15:42:00,75.0,28.0,-100.00,West,261,7.0,16.0,18,0.00,,,-99.99,,2013-08-10 21:42:00,
2013-08-10 15:52:00,74.0,27.0,-100.00,West,272,9.0,16.0,17,0.00,,,-99.99,,2013-08-10 21:52:00,
2013-08-10 16:01:00,74.0,30.0,-100.00,West,264,11.0,20.0,19,0.00,,,-99.99,,2013-08-10 22:01:00,
2013-08-10 16:11:00,74.0,29.0,-100.00,West,260,13.0,21.0,19,0.00,,,-99.99,,2013-08-10 22:11:00,
2013-08-10 16:21:00,74.0,30.0,-100.00,WSW,254,14.0,20.0,19,0.00,,,-99.99,,2013-08-10 22:21:00,
2013-08-10 16:32:00,74.0,30.0,-100.00,WSW,254,11.0,18.0,20,0.00,,,-99.99,,2013-08-10 22:32:00,
2013-08-10 16:43:00,74.0,30.0,-100.00,WSW,254,19.0,27.0,19,0.00,,,-99.99,,2013-08-10 22:43:00,
2013-08-10 16:52:00,75.0,28.0,-100.00,West,261,17.0,26.0,18,0.00,,,-99.99,,2013-08-10 22:52:00,
2013-08-10 17:01:00,75.0,29.0,-100.00,WSW,251,16.0,21.0,18,0.00,,,-99.99,,2013-08-10 23:01:00,
2013-08-10 17:12:00,74.0,28.0,-100.00,WSW,250,15.0,23.0,18,0.00,,,-99.99,,2013-08-10 23:12:00,
2013-08-10 17:22:00,74.0,29.0,-100.00,WSW,250,13.0,23.0,19,0.00,,,-99.99,,2013-08-10 23:22:00,
2013-08-10 17:32:00,74.0,29.0,-100.00,West,267,19.0,28.0,19,0.00,,,-99.99,,2013-08-10 23:32:00,
2013-08-10 17:43:00,74.0,28.0,-100.00,West,264,17.0,24.0,18,0.00,,,-99.99,,2013-08-10 23:43:00,
2013-08-10 17:53:00,73.0,29.0,-100.00,WSW,248,17.0,25.0,20,0.00,,,-99.99,,2013-08-10 23:53:00,
2013-08-10 18:01:00,73.0,29.0,-100.00,SW,224,10.0,25.0,20,0.00,,,-99.99,,2013-08-11 00:01:00,
2013-08-10 18:11:00,70.0,32.0,-100.00,SSW,202,18.0,30.0,25,0.00,,,-99.99,,2013-08-11 00:11:00,
2013-08-10 18:22:00,69.0,34.0,-100.00,SSW,196,19.0,24.0,27,0.00,,,-99.99,,2013-08-11 00:22:00,
2013-08-10 18:32:00,71.0,31.0,-100.00,SSW,196,19.0,26.0,23,0.00,,,-99.99,,2013-08-11 00:32:00,
2013-08-10 18:42:00,71.0,32.0,-100.00,SSW,199,20.0,26.0,23,0.00,,,-99.99,,2013-08-11 00:42:00,
2013-08-10 18:52:00,72.0,30.0,-100.00,SSW,202,17.0,24.0,22,0.00,,,-99.99,,2013-08-11 00:52:00,
2013-08-10 19:01:00,72.0,30.0,-100.00,SSW,205,17.0,24.0,21,0.00,,,-99.99,,2013-08-11 01:01:00,
2013-08-10 19:11:00,70.0,31.0,-100.00,SSW,210,17.0,24.0,23,0.00,,,-99.99,,2013-08-11 01:11:00,
2013-08-10 19:22:00,70.0,33.0,-100.00,SW,217,15.0,22.0,25,0.00,,,-99.99,,2013-08-11 01:22:00,
2013-08-10 19:32:00,69.0,33.0,-100.00,SW,224,15.0,20.0,26,0.00,,,-99.99,,2013-08-11 01:32:00,
2013-08-10 19:43:00,69.0,33.0,-100.00,WSW,248,19.0,27.0,26,0.00,,,-99.99,,2013-08-11 01:43:00,
2013-08-10 19:53:00,69.0,33.0,-100.00,WSW,250,21.0,27.0,26,0.00,,,-99.99,,2013-08-11 01:53:00,
2013-08-10 20:02:00,68.0,33.0,-100.00,WSW,247,19.0,23.0,27,0.00,,,-99.99,,2013-08-11 02:02:00,
2013-08-10 20:11:00,68.0,33.0,-100.00,WSW,251,17.0,21.0,27,0.00,,,-99.99,,2013-08-11 02:11:00,
2013-08-10 20:22:00,67.0,34.0,-100.00,WSW,258,14.0,19.0,29,0.00,,,-99.99,,2013-08-11 02:22:00,
2013-08-10 20:32:00,65.0,34.0,-100.00,West,277,10.0,14.0,31,0.00,,,-99.99,,2013-08-11 02:32:00,
2013-08-10 20:43:00,64.0,39.0,-100.00,NW,311,9.0,14.0,40,0.00,,,-99.99,,2013-08-11 02:43:00,
2013-08-10 20:55:00,63.0,38.0,-100.00,NNW,344,12.0,16.0,39,0.00,,,-99.99,,2013-08-11 02:55:00,
2013-08-10 21:05:00,63.0,39.0,-100.00,North,359,11.0,16.0,42,0.00,,,-99.99,,2013-08-11 03:05:00,
2013-08-10 21:15:00,62.0,39.0,-100.00,North,10,9.0,12.0,43,0.00,,,-99.99,,2013-08-11 03:15:00,
2013-08-10 21:25:00,62.0,40.0,-100.00,North,11,8.0,12.0,44,0.00,,,-99.99,,2013-08-11 03:25:00,
2013-08-10 21:43:00,60.0,40.0,-100.00,ESE,110,2.0,4.0,48,0.00,,,-99.99,,2013-08-11 03:43:00,
2013-08-10 21:54:00,60.0,40.0,-100.00,South,175,2.0,4.0,47,0.00,,,-99.99,,2013-08-11 03:54:00,
2013-08-10 22:01:00,60.0,40.0,-100.00,South,182,2.0,5.0,47,0.00,,,-99.99,,2013-08-11 04:01:00,
2013-08-10 22:12:00,59.0,39.0,-100.00,SSE,168,4.0,6.0,48,0.00,,,-99.99,,2013-08-11 04:12:00,
2013-08-10 22:22:00,58.0,39.0,-100.00,SSE,148,4.0,7.0,48,0.00,,,-99.99,,2013-08-11 04:22:00,
2013-08-10 22:32:00,58.0,39.0,-100.00,SSE,148,5.0,6.0,49,0.00,,,-99.99,,2013-08-11 04:32:00,
2013-08-10 22:42:00,58.0,39.0,-100.00,SSE,165,6.0,7.0,49,0.00,,,-99.99,,2013-08-11 04:42:00,
2013-08-10 22:53:00,57.0,39.0,-100.00,SSE,165,5.0,7.0,50,0.00,,,-99.99,,2013-08-11 04:53:00,
2013-08-10 23:02:00,58.0,39.0,-100.00,SSE,164,6.0,7.0,50,0.00,,,-99.99,,2013-08-11 05:02:00,
2013-08-10 23:23:00,57.0,38.0,-100.00,South,181,6.0,9.0,49,0.00,,,-99.99,,2013-08-11 05:23:00,
2013-08-10 23:35:00,57.0,38.0,-100.00,South,179,6.0,9.0,49,0.00,,,-99.99,,2013-08-11 05:35:00,
2013-08-10 23:44:00,57.0,38.0,-100.00,South,174,7.0,10.0,48,0.00,,,-99.99,,2013-08-11 05:44:00,